Terminal Aerodrome Forecast
Issued by NWS

Current Version | Previous Version | Text Only | Print | Product List | Glossary Off
Versions: 1 2 3 4 5 6 7 8 9 10 11 12 13 14 15 16 17 18 19 20 21

000
FTUS41 KPBZ 210700 AAA
TAFHLG
TAF AMD
KHLG 210738Z 2108/2206 VRB03KT 2SM BR BKN050
      TEMPO 2108/2112 1/2SM FG VV001
     FM211300 16005KT P6SM SCT040=

USA.gov is the U.S. government's official web portal to all federal, state and local government web resources and services.